METAR Data
IDs: Format: Raw Decoded Include TAF

Data at: 2114 UTC 01 Oct 2022

EGAE 011550Z 25020KT 9999 FEW029 15/10 Q1003